createdAt,value
2022-08-20T00:00:12.218Z,32.1
2022-08-20T00:01:14.414Z,32
2022-08-20T00:02:16.864Z,32.1
2022-08-20T00:03:19.470Z,32.1
2022-08-20T00:04:25.461Z,31.8
2022-08-20T00:05:28.945Z,31.9
2022-08-20T00:06:31.419Z,32
2022-08-20T00:07:33.339Z,32.1
2022-08-20T00:08:35.820Z,32
2022-08-20T00:09:38.293Z,32.3
2022-08-20T00:10:40.761Z,32.3
2022-08-20T00:11:49.076Z,32.2
2022-08-20T00:12:51.550Z,32.1
2022-08-20T00:13:54.044Z,32
2022-08-20T00:14:55.679Z,32
2022-08-20T00:15:58.148Z,32.1
2022-08-20T00:17:00.356Z,32.1
2022-08-20T00:19:19.382Z,31.9
2022-08-20T00:20:21.858Z,32.1
2022-08-20T00:21:24.064Z,32.5
2022-08-20T00:22:33.345Z,32.2
2022-08-20T00:23:35.537Z,32.2
2022-08-20T00:24:38.025Z,32.1
2022-08-20T00:25:40.497Z,32
2022-08-20T00:26:51.663Z,32.3
2022-08-20T00:27:47.979Z,32.2
2022-08-20T00:28:50.380Z,32.1
2022-08-20T00:29:52.858Z,32.1
2022-08-20T00:30:55.050Z,32.2
2022-08-20T00:31:57.251Z,32.1
2022-08-20T00:32:59.173Z,32.3
2022-08-20T00:34:01.660Z,32.1
2022-08-20T00:35:04.138Z,32.3
2022-08-20T00:36:06.322Z,32.1
2022-08-20T00:37:08.515Z,32.3
2022-08-20T00:38:10.991Z,32.1
2022-08-20T00:39:13.468Z,32.3
2022-08-20T00:40:22.618Z,32.2
2022-08-20T00:41:20.958Z,32.3
2022-08-20T00:42:23.153Z,32.2
2022-08-20T00:43:25.364Z,32
2022-08-20T00:44:27.576Z,32.6
2022-08-20T00:45:29.768Z,32.3
2022-08-20T00:46:32.188Z,32.1
2022-08-20T00:47:34.724Z,32.4
2022-08-20T00:48:37.583Z,32.3
2022-08-20T00:49:39.796Z,32.4
2022-08-20T00:50:42.270Z,32.5
2022-08-20T00:51:44.744Z,32.4
2022-08-20T00:52:49.366Z,32.1
2022-08-20T00:53:52.216Z,32.3
2022-08-20T00:54:54.702Z,32.1
2022-08-20T00:55:56.892Z,32.5
2022-08-20T00:56:59.093Z,32.4
2022-08-20T00:58:02.019Z,32.5
2022-08-20T00:59:06.254Z,32.4
2022-08-20T01:00:08.850Z,32.5
2022-08-20T01:01:10.752Z,32.2
2022-08-20T01:02:13.079Z,32.1
2022-08-20T01:03:15.597Z,32.4
2022-08-20T01:04:18.076Z,32.2
2022-08-20T01:05:20.623Z,32.3
2022-08-20T01:06:25.622Z,32.4
2022-08-20T01:07:27.829Z,32.2
2022-08-20T01:08:30.309Z,32.6
2022-08-20T01:09:33.574Z,32.3
2022-08-20T01:10:37.218Z,32.5
2022-08-20T01:11:39.709Z,32.7
2022-08-20T01:12:41.889Z,32.2
2022-08-20T01:13:44.361Z,32.2
2022-08-20T01:14:46.909Z,32.3
2022-08-20T01:15:49.115Z,32.4
2022-08-20T01:16:51.311Z,32.4
2022-08-20T01:17:53.780Z,32.2
2022-08-20T01:18:58.493Z,32.6
2022-08-20T01:20:00.966Z,32.5
2022-08-20T01:21:03.172Z,32.2
2022-08-20T01:22:05.646Z,32.5
2022-08-20T01:23:07.570Z,32.3
2022-08-20T01:24:09.492Z,32.5
2022-08-20T01:25:12.861Z,32.4
2022-08-20T01:26:15.048Z,32.5
2022-08-20T01:27:16.692Z,32.4
2022-08-20T01:28:19.831Z,32.4
2022-08-20T01:29:22.302Z,32.4
2022-08-20T01:30:24.470Z,32.3
2022-08-20T01:31:26.398Z,32.3
2022-08-20T01:32:28.617Z,32.3
2022-08-20T01:33:30.568Z,32.3
2022-08-20T01:34:33.036Z,32.5
2022-08-20T01:35:35.237Z,32.4
2022-08-20T01:36:37.703Z,32.5
2022-08-20T01:37:44.885Z,32.4
2022-08-20T01:38:50.187Z,32.1
2022-08-20T01:39:51.827Z,32.5
2022-08-20T01:40:54.694Z,32.5
2022-08-20T01:41:56.595Z,32.3
2022-08-20T01:42:59.848Z,32.4
2022-08-20T01:44:05.018Z,32.3
2022-08-20T01:45:10.013Z,32.2
2022-08-20T01:46:12.484Z,32.6
2022-08-20T01:47:15.174Z,32.2
2022-08-20T01:48:19.360Z,32.4
2022-08-20T01:49:23.076Z,32.4
2022-08-20T01:50:26.084Z,32.4
2022-08-20T01:51:28.576Z,32.6
2022-08-20T01:52:31.091Z,32.4
2022-08-20T01:53:33.033Z,32.5
2022-08-20T01:54:35.250Z,32.3
2022-08-20T01:55:37.450Z,32.3
2022-08-20T01:56:39.917Z,32.1
2022-08-20T01:57:42.406Z,32.5
2022-08-20T01:58:44.882Z,32.4
2022-08-20T01:59:47.376Z,32.5
2022-08-20T02:00:49.843Z,32.2
2022-08-20T02:01:52.366Z,32.3
2022-08-20T02:02:55.074Z,32.5
2022-08-20T02:03:58.687Z,32.3
2022-08-20T02:05:00.620Z,32.4
2022-08-20T02:06:02.810Z,32.5
2022-08-20T02:07:05.276Z,32.6
2022-08-20T02:08:07.476Z,32.4
2022-08-20T02:09:14.367Z,32.3
2022-08-20T02:10:15.600Z,32.2
2022-08-20T02:11:18.087Z,32.6
2022-08-20T02:12:20.291Z,32.5
2022-08-20T02:13:22.771Z,32.5
2022-08-20T02:14:25.245Z,32.3
2022-08-20T02:15:30.870Z,32.3
2022-08-20T02:16:32.713Z,32.5
2022-08-20T02:17:35.193Z,32.3
2022-08-20T02:18:37.668Z,32.6
2022-08-20T02:19:40.145Z,32.6
2022-08-20T02:20:42.627Z,32.5
2022-08-20T02:21:44.811Z,32.3
2022-08-20T02:22:49.886Z,32.3
2022-08-20T02:23:52.291Z,32.5
2022-08-20T02:24:54.216Z,32.3
2022-08-20T02:25:55.923Z,32.4
2022-08-20T02:26:57.847Z,32.2
2022-08-20T02:28:00.322Z,32.5
2022-08-20T02:29:02.811Z,32.6
2022-08-20T02:30:05.293Z,32.3
2022-08-20T02:31:08.951Z,32.4
2022-08-20T02:32:24.032Z,32.4
2022-08-20T02:33:16.431Z,32.5
2022-08-20T02:34:22.606Z,32.6
2022-08-20T02:35:24.416Z,32.8
2022-08-20T02:36:27.045Z,32.5
2022-08-20T02:37:29.528Z,32.5
2022-08-20T02:38:31.790Z,32.4
2022-08-20T02:39:34.289Z,32.3
2022-08-20T02:40:37.162Z,32.3
2022-08-20T02:41:39.645Z,32.2
2022-08-20T02:42:42.484Z,32.3
2022-08-20T02:43:46.431Z,32.5
2022-08-20T02:44:48.624Z,32.5
2022-08-20T02:45:50.822Z,32.6
2022-08-20T02:46:53.025Z,32.5
2022-08-20T02:47:55.685Z,32.4
2022-08-20T02:48:59.731Z,32.6
2022-08-20T02:50:01.659Z,32.3
2022-08-20T02:51:07.151Z,32.6
2022-08-20T02:52:09.343Z,32.3
2022-08-20T02:53:11.821Z,32.4
2022-08-20T02:54:14.022Z,32.5
2022-08-20T02:55:18.166Z,32.3
2022-08-20T02:56:21.493Z,32.5
2022-08-20T02:57:23.961Z,32.7
2022-08-20T02:58:26.159Z,32.4
2022-08-20T02:59:28.634Z,32.6
2022-08-20T03:00:32.315Z,32.6
2022-08-20T03:01:36.187Z,32.4
2022-08-20T03:02:39.043Z,32.5
2022-08-20T03:03:41.248Z,32.4
2022-08-20T03:04:43.722Z,32.5
2022-08-20T03:05:46.197Z,32.1
2022-08-20T03:06:48.398Z,32.4
2022-08-20T03:07:53.446Z,32.3
2022-08-20T03:08:56.430Z,32.4
2022-08-20T03:09:58.628Z,32.4
2022-08-20T03:11:01.122Z,32.2
2022-08-20T03:12:03.592Z,32.1
2022-08-20T03:13:06.068Z,32.2
2022-08-20T03:14:07.993Z,32.1
2022-08-20T03:15:17.322Z,32.4
2022-08-20T03:16:15.460Z,32.2
2022-08-20T03:17:17.935Z,32.1
2022-08-20T03:18:20.416Z,31.9
2022-08-20T03:19:22.606Z,32.1
2022-08-20T03:20:24.804Z,31.9
2022-08-20T03:21:27.628Z,32
2022-08-20T03:22:30.115Z,31.9
2022-08-20T03:23:32.594Z,31.9
2022-08-20T03:24:41.793Z,31.8
2022-08-20T03:25:43.986Z,32
2022-08-20T03:26:46.476Z,32
2022-08-20T03:27:49.314Z,31.9
2022-08-20T03:28:53.945Z,32
2022-08-20T03:29:56.413Z,31.7
2022-08-20T03:30:59.808Z,31.9
2022-08-20T03:32:06.040Z,31.6
2022-08-20T03:33:07.288Z,31.8
2022-08-20T03:34:08.946Z,31.7
2022-08-20T03:35:11.120Z,31.8
2022-08-20T03:36:13.594Z,31.6
2022-08-20T03:37:18.594Z,31.8
2022-08-20T03:38:21.603Z,31.7
2022-08-20T03:39:26.064Z,31.9
2022-08-20T03:40:28.260Z,31.6
2022-08-20T03:41:30.454Z,31.8
2022-08-20T03:42:32.647Z,31.7
2022-08-20T03:43:35.139Z,31.9
2022-08-20T03:44:39.421Z,31.7
2022-08-20T03:45:41.640Z,31.7
2022-08-20T03:46:43.833Z,32.2
2022-08-20T03:47:46.300Z,31.8
2022-08-20T03:48:48.798Z,31.7
2022-08-20T03:49:55.454Z,31.5
2022-08-20T03:50:57.922Z,31.7
2022-08-20T03:52:00.392Z,31.8
2022-08-20T03:53:02.863Z,31.7
2022-08-20T03:54:05.334Z,31.8
2022-08-20T03:55:07.821Z,31.7
2022-08-20T03:56:10.295Z,32
2022-08-20T03:57:13.075Z,31.6
2022-08-20T03:58:15.592Z,31.8
2022-08-20T03:59:17.789Z,31.8
2022-08-20T04:00:20.270Z,31.8
2022-08-20T04:01:36.805Z,31.7
2022-08-20T04:02:27.486Z,31.6
2022-08-20T04:03:29.968Z,31.6
2022-08-20T04:04:32.438Z,31.8
2022-08-20T04:05:34.909Z,31.8
2022-08-20T04:06:37.127Z,31.6
2022-08-20T04:07:43.919Z,31.8
2022-08-20T04:08:46.136Z,31.6
2022-08-20T04:09:48.321Z,31.9
2022-08-20T04:10:50.544Z,31.8
2022-08-20T04:11:52.768Z,31.5
2022-08-20T04:12:55.252Z,31.7
2022-08-20T04:13:59.839Z,31.4
2022-08-20T04:15:06.839Z,31.5
2022-08-20T04:16:14.847Z,31.7
2022-08-20T04:17:18.830Z,31.7
2022-08-20T04:18:24.107Z,31.7
2022-08-20T04:19:26.020Z,31.6
2022-08-20T04:20:31.505Z,31.5
2022-08-20T04:21:33.968Z,31.9
2022-08-20T04:22:35.908Z,31.7
2022-08-20T04:23:39.645Z,31.5
2022-08-20T04:24:42.120Z,31.7
2022-08-20T04:25:44.317Z,31.6
2022-08-20T04:26:47.401Z,31.7
2022-08-20T04:27:49.951Z,31.6
2022-08-20T04:28:52.373Z,31.7
2022-08-20T04:29:54.840Z,31.6
2022-08-20T04:30:56.758Z,31.7
2022-08-20T04:31:59.225Z,31.6
2022-08-20T04:33:05.752Z,31.6
2022-08-20T04:34:08.217Z,31.8
2022-08-20T04:35:10.699Z,31.5
2022-08-20T04:36:13.181Z,31.5
2022-08-20T04:37:17.091Z,31.6
2022-08-20T04:38:19.891Z,31.6
2022-08-20T04:39:22.371Z,31.6
2022-08-20T04:40:24.855Z,31.6
2022-08-20T04:41:27.334Z,31.7
2022-08-20T04:42:29.812Z,31.9
2022-08-20T04:43:34.762Z,31.7
2022-08-20T04:44:37.231Z,31.5
2022-08-20T04:45:39.726Z,31.4
2022-08-20T04:46:42.195Z,31.5
2022-08-20T04:47:44.682Z,31.6
2022-08-20T04:48:48.834Z,31.6
2022-08-20T04:49:52.149Z,31.7
2022-08-20T04:50:57.148Z,31.4
2022-08-20T04:52:04.555Z,31.5
2022-08-20T04:53:07.026Z,31.6
2022-08-20T04:54:09.236Z,31.8
2022-08-20T04:55:11.704Z,31.5
2022-08-20T04:56:14.172Z,31.7
2022-08-20T04:57:17.191Z,31.6
2022-08-20T04:58:19.382Z,31.5
2022-08-20T04:59:24.862Z,31.6
2022-08-20T05:00:27.070Z,31.3
2022-08-20T05:01:29.454Z,31.6
2022-08-20T05:02:31.986Z,31.4
2022-08-20T05:03:34.458Z,31.6
2022-08-20T05:04:36.371Z,31.5
2022-08-20T05:05:38.892Z,31.4
2022-08-20T05:06:41.090Z,31.4
2022-08-20T05:07:43.563Z,31.6
2022-08-20T05:08:45.764Z,31.8
2022-08-20T05:09:48.248Z,31.4
2022-08-20T05:10:50.720Z,31.7
2022-08-20T05:11:55.721Z,31.5
2022-08-20T05:12:58.203Z,31.4
2022-08-20T05:14:00.689Z,31.6
2022-08-20T05:15:02.933Z,31.6
2022-08-20T05:16:05.428Z,31.6
2022-08-20T05:17:07.906Z,31.5
2022-08-20T05:18:10.398Z,31.6
2022-08-20T05:19:12.887Z,31.4
2022-08-20T05:20:15.109Z,31.7
2022-08-20T05:21:17.590Z,31.5
2022-08-20T05:22:20.058Z,31.4
2022-08-20T05:23:21.956Z,31.6
2022-08-20T05:24:24.425Z,31.7
2022-08-20T05:25:26.903Z,31.6
2022-08-20T05:26:29.375Z,31.3
2022-08-20T05:27:31.577Z,31.4
2022-08-20T05:28:36.862Z,31.3
2022-08-20T05:29:39.044Z,31.4
2022-08-20T05:30:41.510Z,31.4
2022-08-20T05:31:44.588Z,31.5
2022-08-20T05:32:46.798Z,31.6
2022-08-20T05:33:49.005Z,31.6
2022-08-20T05:34:51.493Z,31.6
2022-08-20T05:35:53.968Z,31.5
2022-08-20T05:36:56.146Z,31.5
2022-08-20T05:37:58.780Z,31.6
2022-08-20T05:39:01.259Z,31.6
2022-08-20T05:40:03.812Z,31.5
2022-08-20T05:41:05.975Z,31.2
2022-08-20T05:42:07.912Z,31.7
2022-08-20T05:43:09.841Z,31.2
2022-08-20T05:44:12.037Z,31.5
2022-08-20T05:45:14.487Z,31.4
2022-08-20T05:46:16.962Z,31.2
2022-08-20T05:47:19.164Z,31.3
2022-08-20T05:48:24.165Z,31.5
2022-08-20T05:49:26.639Z,31.5
2022-08-20T05:50:29.114Z,31.3
2022-08-20T05:51:31.584Z,31.6
2022-08-20T05:52:33.862Z,31.5
2022-08-20T05:53:36.357Z,31.4
2022-08-20T05:54:38.837Z,31.2
2022-08-20T05:55:41.317Z,31.4
2022-08-20T05:56:43.794Z,31.3
2022-08-20T05:57:46.271Z,31.4
2022-08-20T05:58:48.482Z,31.7
2022-08-20T05:59:53.475Z,31.5
2022-08-20T06:00:56.008Z,31.4
2022-08-20T06:01:58.500Z,31.3
2022-08-20T06:03:00.690Z,31.2
2022-08-20T06:04:02.897Z,31.5
2022-08-20T06:05:04.555Z,31.5
2022-08-20T06:06:15.036Z,31.5
2022-08-20T06:07:11.957Z,31.5
2022-08-20T06:08:14.318Z,31.5
2022-08-20T06:09:28.253Z,31.1
2022-08-20T06:10:21.867Z,31.5
2022-08-20T06:11:24.421Z,31.3
2022-08-20T06:12:26.907Z,31.5
2022-08-20T06:13:29.120Z,31.5
2022-08-20T06:14:31.403Z,31.2
2022-08-20T06:15:33.909Z,31.5
2022-08-20T06:16:37.816Z,31.2
2022-08-20T06:17:44.595Z,31.5
2022-08-20T06:18:49.591Z,31.5
2022-08-20T06:19:51.798Z,31.6
2022-08-20T06:20:54.511Z,31.3
2022-08-20T06:21:57.138Z,31.6
2022-08-20T06:22:59.519Z,31.5
2022-08-20T06:24:02.133Z,31.6
2022-08-20T06:25:04.426Z,31.3
2022-08-20T06:26:07.020Z,31.3
2022-08-20T06:27:09.494Z,31.4
2022-08-20T06:28:11.963Z,31.5
2022-08-20T06:29:14.149Z,31.5
2022-08-20T06:30:16.621Z,31.5
2022-08-20T06:31:19.110Z,31.6
2022-08-20T06:32:27.842Z,31.4
2022-08-20T06:33:26.578Z,31.5
2022-08-20T06:34:30.797Z,31.8
2022-08-20T06:35:33.542Z,31.2
2022-08-20T06:36:35.452Z,31.6
2022-08-20T06:37:37.933Z,31.6
2022-08-20T06:38:40.412Z,31.5
2022-08-20T06:39:44.577Z,31.5
2022-08-20T06:40:47.516Z,31.5
2022-08-20T06:41:49.989Z,31.5
2022-08-20T06:42:55.502Z,31.4
2022-08-20T06:43:57.972Z,31.5
2022-08-20T06:45:00.478Z,31.5
2022-08-20T06:46:02.714Z,31.5
2022-08-20T06:47:04.920Z,31.5
2022-08-20T06:48:07.418Z,31.7
2022-08-20T06:49:09.898Z,31.6
2022-08-20T06:50:12.078Z,31.5
2022-08-20T06:51:14.569Z,31.4
2022-08-20T06:52:17.156Z,31.7
2022-08-20T06:53:19.502Z,31.5
2022-08-20T06:54:21.753Z,31.5
2022-08-20T06:55:26.752Z,31.6
2022-08-20T06:56:29.272Z,31.3
2022-08-20T06:57:31.809Z,31.5
2022-08-20T06:58:38.025Z,31.4
2022-08-20T06:59:38.748Z,31.7
2022-08-20T07:00:41.279Z,31.6
2022-08-20T07:01:43.805Z,31.4
2022-08-20T07:02:46.011Z,31.4
2022-08-20T07:03:54.308Z,31.8
2022-08-20T07:04:53.201Z,31.4
2022-08-20T07:05:55.126Z,31.5
2022-08-20T07:06:57.616Z,31.3
2022-08-20T07:08:00.099Z,31.6
2022-08-20T07:09:01.729Z,31.7
2022-08-20T07:10:03.938Z,31.6
2022-08-20T07:11:06.417Z,31.7
2022-08-20T07:12:08.891Z,31.6
2022-08-20T07:13:11.710Z,31.7
2022-08-20T07:14:14.174Z,31.2
2022-08-20T07:15:16.650Z,31.5
2022-08-20T07:16:19.123Z,31.7
2022-08-20T07:17:24.063Z,31.5
2022-08-20T07:18:27.813Z,31.5
2022-08-20T07:19:31.206Z,31.5
2022-08-20T07:20:33.400Z,31.6
2022-08-20T07:21:35.873Z,31.4
2022-08-20T07:22:38.342Z,31.4
2022-08-20T07:23:40.523Z,31.4
2022-08-20T07:24:45.975Z,31.2
2022-08-20T07:25:47.736Z,31.6
2022-08-20T07:26:49.936Z,31.5
2022-08-20T07:27:57.515Z,31.4
2022-08-20T07:28:59.449Z,31.4
2022-08-20T07:30:01.935Z,31.3
2022-08-20T07:31:12.078Z,31.5
2022-08-20T07:32:09.637Z,31.6
2022-08-20T07:33:12.244Z,31.4
2022-08-20T07:34:16.090Z,31.3
2022-08-20T07:35:22.030Z,31.4
2022-08-20T07:36:24.508Z,31.3
2022-08-20T07:37:26.433Z,31.4
2022-08-20T07:38:28.665Z,31.1
2022-08-20T07:39:30.881Z,31.3
2022-08-20T07:40:34.878Z,31.6
2022-08-20T07:41:37.090Z,31.5
2022-08-20T07:42:39.558Z,31.6
2022-08-20T07:43:42.045Z,31.2
2022-08-20T07:44:44.514Z,31.2
2022-08-20T07:45:47.653Z,31.5
2022-08-20T07:46:52.004Z,31.7
2022-08-20T07:47:54.209Z,31.3
2022-08-20T07:48:56.745Z,31.3
2022-08-20T07:49:59.226Z,31.6
2022-08-20T07:51:01.459Z,31.6
2022-08-20T07:52:03.922Z,31.3
2022-08-20T07:53:09.421Z,31.7
2022-08-20T07:54:11.915Z,31.5
2022-08-20T07:55:14.395Z,31.4
2022-08-20T07:56:16.602Z,31.7
2022-08-20T07:57:18.807Z,31.3
2022-08-20T07:58:21.364Z,31.3
2022-08-20T07:59:26.365Z,31.8
2022-08-20T08:00:28.542Z,31.3
2022-08-20T08:01:31.174Z,31.2
2022-08-20T08:02:33.360Z,31.4
2022-08-20T08:03:37.542Z,31.4
2022-08-20T08:04:40.857Z,31.6
2022-08-20T08:05:43.048Z,31.5
2022-08-20T08:06:45.253Z,31.5
2022-08-20T08:07:47.809Z,31.4
2022-08-20T08:08:50.315Z,31.6
2022-08-20T08:09:52.996Z,31.8
2022-08-20T08:10:55.477Z,31.7
2022-08-20T08:11:57.966Z,31.3
2022-08-20T08:13:00.187Z,31.4
2022-08-20T08:14:02.676Z,31.4
2022-08-20T08:15:05.150Z,31.6
2022-08-20T08:16:07.334Z,31.4
2022-08-20T08:17:09.828Z,31.6
2022-08-20T08:18:12.036Z,31.4
2022-08-20T08:19:16.755Z,31.7
2022-08-20T08:20:18.945Z,31.6
2022-08-20T08:21:21.055Z,31.3
2022-08-20T08:22:23.256Z,31.4
2022-08-20T08:23:31.408Z,31.5
2022-08-20T08:24:30.167Z,31.4
2022-08-20T08:25:32.636Z,31.7
2022-08-20T08:26:35.109Z,31.2
2022-08-20T08:27:37.325Z,31.3
2022-08-20T08:28:39.529Z,31.3
2022-08-20T08:29:42.006Z,31.4
2022-08-20T08:30:44.486Z,31.3
2022-08-20T08:31:46.218Z,31.5
2022-08-20T08:32:48.483Z,31.5
2022-08-20T08:33:50.856Z,31.3
2022-08-20T08:34:53.056Z,31.3
2022-08-20T08:35:55.532Z,31.4
2022-08-20T08:36:57.733Z,31.4
2022-08-20T08:37:59.644Z,31.3
2022-08-20T08:39:02.126Z,31.5
2022-08-20T08:40:04.652Z,31.5
2022-08-20T08:41:07.209Z,31.6
2022-08-20T08:42:09.421Z,31.4
2022-08-20T08:43:14.417Z,31.2
2022-08-20T08:44:19.414Z,31.5
2022-08-20T08:45:21.617Z,31.7
2022-08-20T08:46:23.795Z,31.4
2022-08-20T08:47:25.722Z,31.3
2022-08-20T08:48:27.938Z,31.5
2022-08-20T08:49:37.899Z,31.6
2022-08-20T08:50:53.691Z,31.5
2022-08-20T08:51:40.454Z,31.5
2022-08-20T08:52:42.929Z,31.5
2022-08-20T08:53:45.428Z,31.3
2022-08-20T08:54:47.909Z,31.1
2022-08-20T08:55:49.869Z,31.6
2022-08-20T08:56:52.076Z,31.3
2022-08-20T08:57:54.259Z,31.3
2022-08-20T08:58:56.742Z,31.5
2022-08-20T09:00:04.559Z,31.4
2022-08-20T09:01:06.894Z,31.3
2022-08-20T09:02:09.001Z,31.6
2022-08-20T09:03:11.271Z,31.5
2022-08-20T09:04:13.749Z,31.4
2022-08-20T09:05:15.954Z,31.1
2022-08-20T09:06:18.159Z,31.4
2022-08-20T09:07:20.665Z,31.7
2022-08-20T09:08:23.138Z,31.3
2022-08-20T09:09:25.053Z,31.4
2022-08-20T09:10:27.246Z,31.2
2022-08-20T09:11:29.722Z,31.2
2022-08-20T09:12:32.194Z,31.2
2022-08-20T09:13:34.402Z,31.3
2022-08-20T09:14:36.902Z,31.4
2022-08-20T09:15:39.393Z,31.1
2022-08-20T09:16:52.104Z,31.5
2022-08-20T09:17:46.889Z,31.4
2022-08-20T09:18:49.106Z,31.4
2022-08-20T09:19:51.319Z,31.5
2022-08-20T09:20:53.948Z,31.3
2022-08-20T09:21:56.458Z,31.2
2022-08-20T09:22:58.791Z,31.3
2022-08-20T09:24:01.445Z,31.3
2022-08-20T09:25:03.930Z,31.4
2022-08-20T09:26:06.113Z,31.3
2022-08-20T09:27:07.738Z,31.3
2022-08-20T09:28:10.235Z,31.4
2022-08-20T09:29:17.328Z,31.2
2022-08-20T09:30:20.081Z,31.3
2022-08-20T09:31:24.296Z,31.2
2022-08-20T09:32:27.747Z,31.2
2022-08-20T09:33:30.271Z,31.3
2022-08-20T09:34:32.218Z,31.5
2022-08-20T09:35:34.436Z,31.4
2022-08-20T09:36:36.939Z,31.5
2022-08-20T09:37:38.862Z,31.4
2022-08-20T09:38:41.375Z,31.2
2022-08-20T09:39:43.915Z,31.5
2022-08-20T09:40:46.610Z,31.2
2022-08-20T09:41:48.870Z,31.3
2022-08-20T09:42:51.657Z,31.5
2022-08-20T09:43:54.458Z,31.5
2022-08-20T09:44:57.384Z,31.5
2022-08-20T09:45:59.388Z,31.5
2022-08-20T09:47:01.893Z,31.4
2022-08-20T09:48:04.572Z,31.4
2022-08-20T09:49:10.463Z,31.4
2022-08-20T09:50:12.866Z,31.3
2022-08-20T09:51:14.952Z,31.5
2022-08-20T09:52:17.469Z,31.5
2022-08-20T09:53:19.646Z,31.5
2022-08-20T09:54:22.171Z,31.3
2022-08-20T09:55:25.664Z,31.4
2022-08-20T09:56:28.661Z,31.3
2022-08-20T09:57:31.236Z,31.4
2022-08-20T09:58:33.861Z,31.5
2022-08-20T09:59:36.718Z,31.5
2022-08-20T10:00:39.473Z,31.3
2022-08-20T10:01:42.099Z,31.4
2022-08-20T10:02:45.123Z,31.5
2022-08-20T10:03:47.649Z,31.2
2022-08-20T10:04:50.504Z,31.5
2022-08-20T10:05:54.166Z,31.4
2022-08-20T10:06:56.366Z,31.6
2022-08-20T10:07:58.749Z,31.5
2022-08-20T10:09:01.177Z,31.6
2022-08-20T10:10:03.654Z,31.6
2022-08-20T10:11:05.866Z,31.3
2022-08-20T10:12:08.346Z,31.4
2022-08-20T10:13:12.664Z,31.3
2022-08-20T10:14:15.825Z,31.6
2022-08-20T10:15:18.056Z,31.3
2022-08-20T10:16:20.260Z,31.5
2022-08-20T10:17:22.735Z,31.5
2022-08-20T10:18:24.680Z,31.5
2022-08-20T10:19:27.191Z,31.4
2022-08-20T10:20:29.142Z,31.3
2022-08-20T10:21:34.336Z,31.5
2022-08-20T10:22:36.646Z,31.2
2022-08-20T10:23:39.125Z,31.5
2022-08-20T10:24:41.325Z,31.4
2022-08-20T10:25:43.538Z,31.2
2022-08-20T10:26:45.732Z,31.3
2022-08-20T10:27:48.208Z,31.3
2022-08-20T10:28:50.461Z,31.5
2022-08-20T10:29:53.191Z,31.3
2022-08-20T10:30:55.663Z,31.4
2022-08-20T10:31:57.855Z,31.5
2022-08-20T10:33:00.056Z,31.5
2022-08-20T10:34:02.274Z,31.3
2022-08-20T10:35:04.784Z,31.6
2022-08-20T10:36:07.060Z,31.5
2022-08-20T10:37:09.542Z,31.4
2022-08-20T10:38:11.721Z,31.3
2022-08-20T10:39:14.207Z,31.3
2022-08-20T10:40:16.790Z,31.4
2022-08-20T10:41:19.862Z,31.4
2022-08-20T10:42:22.343Z,31.3
2022-08-20T10:43:24.568Z,31.3
2022-08-20T10:44:26.509Z,31.1
2022-08-20T10:45:28.702Z,31.2
2022-08-20T10:46:31.204Z,31.4
2022-08-20T10:47:33.400Z,31.4
2022-08-20T10:48:35.614Z,31.4
2022-08-20T10:49:37.793Z,31.5
2022-08-20T10:50:39.997Z,31.3
2022-08-20T10:51:42.470Z,31.3
2022-08-20T10:52:44.673Z,31.5
2022-08-20T10:53:47.163Z,31.3
2022-08-20T10:54:49.347Z,31.5
2022-08-20T10:55:51.560Z,31.2
2022-08-20T10:56:54.031Z,31.4
2022-08-20T10:57:56.704Z,31.3
2022-08-20T10:58:59.776Z,31.5
2022-08-20T11:00:02.262Z,31.3
2022-08-20T11:01:05.011Z,31.6
2022-08-20T11:02:06.995Z,31.5
2022-08-20T11:03:09.710Z,31.4
2022-08-20T11:04:12.181Z,31.4
2022-08-20T11:05:14.676Z,31.6
2022-08-20T11:06:16.600Z,31.5
2022-08-20T11:07:19.090Z,31.4
2022-08-20T11:08:33.361Z,31.5
2022-08-20T11:09:31.035Z,31.5
2022-08-20T11:10:33.516Z,31.4
2022-08-20T11:11:35.710Z,31.3
2022-08-20T11:12:38.333Z,31.6
2022-08-20T11:13:44.383Z,31.6
2022-08-20T11:14:46.619Z,31.3
2022-08-20T11:15:49.124Z,31.5
2022-08-20T11:16:51.306Z,31.6
2022-08-20T11:17:53.515Z,31.4
2022-08-20T11:18:56.206Z,31.5
2022-08-20T11:19:58.684Z,31.4
2022-08-20T11:21:00.907Z,31.3
2022-08-20T11:22:03.398Z,31.5
2022-08-20T11:23:05.876Z,31.1
2022-08-20T11:24:08.093Z,31.4
2022-08-20T11:25:10.296Z,31.4
2022-08-20T11:26:12.818Z,31.4
2022-08-20T11:27:15.018Z,31.3
2022-08-20T11:28:17.499Z,31.3
2022-08-20T11:29:22.490Z,31.3
2022-08-20T11:30:24.969Z,31.7
2022-08-20T11:31:27.438Z,31.4
2022-08-20T11:32:29.362Z,31.6
2022-08-20T11:33:31.559Z,31.6
2022-08-20T11:34:34.036Z,31.6
2022-08-20T11:35:48.747Z,31.4
2022-08-20T11:36:41.607Z,31.4
2022-08-20T11:37:44.204Z,31.3
2022-08-20T11:38:46.143Z,31.5
2022-08-20T11:39:48.671Z,31.4
2022-08-20T11:40:51.485Z,31.5
2022-08-20T11:41:54.796Z,31.4
2022-08-20T11:43:14.027Z,31.4
2022-08-20T11:44:20.024Z,31.4
2022-08-20T11:45:07.694Z,31.5
2022-08-20T11:46:12.279Z,31.3
2022-08-20T11:47:14.759Z,31.6
2022-08-20T11:48:16.986Z,31.6
2022-08-20T11:49:19.665Z,31.5
2022-08-20T11:50:22.142Z,31.7
2022-08-20T11:51:24.319Z,31.7
2022-08-20T11:52:26.543Z,31.4
2022-08-20T11:53:31.540Z,31.4
2022-08-20T11:54:39.701Z,31.3
2022-08-20T11:55:42.265Z,31.6
2022-08-20T11:56:45.848Z,31.4
2022-08-20T11:57:47.758Z,31.6
2022-08-20T11:58:49.981Z,31.6
2022-08-20T11:59:51.884Z,31.7
2022-08-20T12:00:54.102Z,31.4
2022-08-20T12:02:02.206Z,31.5
2022-08-20T12:03:01.736Z,31.4
2022-08-20T12:04:04.825Z,31.7
2022-08-20T12:05:07.309Z,31.6
2022-08-20T12:06:09.817Z,31.2
2022-08-20T12:07:12.011Z,31.5
2022-08-20T12:08:25.366Z,31.6
2022-08-20T12:09:23.025Z,31.3
2022-08-20T12:10:24.502Z,31.4
2022-08-20T12:11:26.990Z,31.4
2022-08-20T12:12:29.489Z,31.6
2022-08-20T12:13:47.665Z,31.3
2022-08-20T12:14:36.971Z,31.5
2022-08-20T12:15:39.202Z,31.6
2022-08-20T12:16:41.414Z,31.2
2022-08-20T12:17:43.917Z,31.5
2022-08-20T12:18:46.388Z,31.5
2022-08-20T12:19:48.892Z,31.6
2022-08-20T12:20:51.373Z,31.4
2022-08-20T12:21:53.581Z,31.4
2022-08-20T12:22:55.953Z,31.4
2022-08-20T12:23:59.419Z,31.3
2022-08-20T12:25:01.060Z,31.5
2022-08-20T12:26:02.689Z,31.6
2022-08-20T12:27:05.169Z,31.5
2022-08-20T12:28:08.407Z,31.4
2022-08-20T12:29:10.893Z,31.4
2022-08-20T12:30:13.385Z,31.6
2022-08-20T12:31:15.565Z,31.6
2022-08-20T12:32:18.065Z,31.4
2022-08-20T12:33:20.570Z,31.6
2022-08-20T12:34:22.767Z,31.5
2022-08-20T12:35:24.960Z,31.4
2022-08-20T12:36:27.681Z,31.4
2022-08-20T12:37:29.630Z,31.6
2022-08-20T12:38:31.286Z,31.4
2022-08-20T12:39:33.809Z,31.4
2022-08-20T12:40:36.509Z,31.6
2022-08-20T12:41:38.446Z,31.2
2022-08-20T12:42:42.217Z,31.3
2022-08-20T12:43:44.387Z,31.5
2022-08-20T12:44:46.887Z,31.5
2022-08-20T12:45:49.370Z,31.6
2022-08-20T12:46:51.840Z,31.5
2022-08-20T12:47:54.049Z,31.4
2022-08-20T12:48:56.260Z,31.4
2022-08-20T12:49:58.546Z,31.7
2022-08-20T12:51:00.740Z,31.5
2022-08-20T12:52:03.226Z,31.7
2022-08-20T12:53:05.715Z,31.4
2022-08-20T12:54:07.959Z,31.6
2022-08-20T12:55:10.382Z,31.6
2022-08-20T12:56:12.586Z,31.6
2022-08-20T12:57:15.055Z,31.7
2022-08-20T12:58:17.577Z,31.5
2022-08-20T12:59:25.754Z,31.5
2022-08-20T13:00:27.103Z,31.5
2022-08-20T13:01:32.328Z,31.5
2022-08-20T13:02:35.131Z,31.6
2022-08-20T13:03:40.176Z,31.5
2022-08-20T13:04:42.708Z,31.5
2022-08-20T13:05:45.589Z,31.3
2022-08-20T13:06:47.781Z,31.2
2022-08-20T13:07:50.410Z,31.6
2022-08-20T13:08:52.347Z,31.2
2022-08-20T13:09:54.820Z,31.3
2022-08-20T13:10:56.754Z,31.5
2022-08-20T13:11:58.957Z,31.4
2022-08-20T13:13:04.451Z,31.5
2022-08-20T13:14:06.934Z,31.3
2022-08-20T13:15:09.425Z,31.5
2022-08-20T13:16:11.862Z,31.5
2022-08-20T13:17:14.339Z,31.5
2022-08-20T13:18:24.450Z,31.3
2022-08-20T13:19:26.926Z,31.4
2022-08-20T13:20:31.045Z,31.4
2022-08-20T13:21:34.116Z,31.6
2022-08-20T13:22:36.384Z,31.5
2022-08-20T13:23:38.305Z,31.5
2022-08-20T13:24:40.805Z,31.5
2022-08-20T13:25:42.991Z,31.7
2022-08-20T13:26:45.175Z,31.6
2022-08-20T13:27:47.441Z,31.6
2022-08-20T13:28:49.489Z,31.2
2022-08-20T13:29:55.155Z,31.5
2022-08-20T13:30:56.695Z,31.6
2022-08-20T13:31:59.178Z,31.5
2022-08-20T13:33:01.107Z,31.4
2022-08-20T13:34:03.319Z,31.4
2022-08-20T13:35:05.525Z,31.3
2022-08-20T13:36:07.160Z,31.6
2022-08-20T13:37:09.919Z,31.4
2022-08-20T13:38:12.739Z,31.5
2022-08-20T13:39:15.223Z,31.5
2022-08-20T13:40:17.858Z,31.4
2022-08-20T13:41:20.543Z,31.7
2022-08-20T13:42:22.815Z,31.6
2022-08-20T13:43:25.078Z,31.3
2022-08-20T13:44:28.591Z,31.5
2022-08-20T13:45:32.291Z,31.5
2022-08-20T13:46:34.772Z,31.4
2022-08-20T13:47:36.969Z,31.6
2022-08-20T13:48:39.460Z,31.5
2022-08-20T13:49:41.748Z,31.4
2022-08-20T13:50:43.959Z,31.7
2022-08-20T13:51:48.954Z,31.4
2022-08-20T13:52:54.017Z,31.4
2022-08-20T13:53:58.966Z,31.6
2022-08-20T13:55:01.431Z,31.5
2022-08-20T13:56:08.605Z,31.4
2022-08-20T14:00:12.041Z,31.3
2022-08-20T14:01:14.592Z,31.1